createdAt,value
2018-02-10T00:01:39.766Z,-1.70
2018-02-10T00:04:49.712Z,-1.70
2018-02-10T00:08:00.634Z,-1.70
2018-02-10T00:11:11.457Z,-1.70
2018-02-10T00:14:22.452Z,-1.70
2018-02-10T00:17:32.878Z,-1.60
2018-02-10T00:20:43.499Z,-1.60
2018-02-10T00:23:53.983Z,-1.60
2018-02-10T00:27:05.944Z,-1.60
2018-02-10T00:30:17.117Z,-1.60
2018-02-10T00:33:27.729Z,-1.60
2018-02-10T00:36:37.567Z,-1.60
2018-02-10T00:39:47.656Z,-1.60
2018-02-10T00:42:58.104Z,-1.50
2018-02-10T00:46:11.007Z,-1.60
2018-02-10T00:49:21.498Z,-1.60
2018-02-10T00:52:31.290Z,-1.60
2018-02-10T00:55:41.233Z,-1.50
2018-02-10T00:58:51.145Z,-1.50
2018-02-10T01:02:02.074Z,-1.50
2018-02-10T01:05:12.106Z,-1.60
2018-02-10T01:08:22.290Z,-1.50
2018-02-10T01:11:32.119Z,-1.50
2018-02-10T01:14:41.870Z,-1.60
2018-02-10T01:17:51.794Z,-1.60
2018-02-10T01:21:02.446Z,-1.50
2018-02-10T01:24:12.302Z,-1.50
2018-02-10T01:27:22.521Z,-1.50
2018-02-10T01:30:33.170Z,-1.50
2018-02-10T01:33:42.913Z,-1.50
2018-02-10T01:36:53.762Z,-1.50
2018-02-10T01:40:03.954Z,-1.50
2018-02-10T01:43:13.995Z,-1.50
2018-02-10T01:46:24.130Z,-1.50
2018-02-10T01:49:34.746Z,-1.50
2018-02-10T01:52:44.572Z,-1.50
2018-02-10T01:55:54.474Z,-1.50
2018-02-10T01:59:04.611Z,-1.50
2018-02-10T02:02:15.385Z,-1.50
2018-02-10T02:05:25.462Z,-1.50
2018-02-10T02:08:35.479Z,-1.50
2018-02-10T02:11:46.011Z,-1.50
2018-02-10T02:14:56.120Z,-1.50
2018-02-10T02:18:06.879Z,-1.50
2018-02-10T02:21:16.597Z,-1.50
2018-02-10T02:24:26.629Z,-1.50
2018-02-10T02:27:36.979Z,-1.40
2018-02-10T02:30:47.130Z,-1.40
2018-02-10T02:33:57.455Z,-1.40
2018-02-10T02:37:07.808Z,-1.40
2018-02-10T02:40:18.775Z,-1.40
2018-02-10T02:43:29.028Z,-1.40
2018-02-10T02:46:39.084Z,-1.40
2018-02-10T02:49:49.229Z,-1.40
2018-02-10T02:52:59.102Z,-1.40
2018-02-10T02:56:09.109Z,-1.40
2018-02-10T02:59:19.046Z,-1.40
2018-02-10T03:02:29.246Z,-1.40
2018-02-10T03:05:39.142Z,-1.40
2018-02-10T03:08:49.877Z,-1.40
2018-02-10T03:12:00.298Z,-1.40
2018-02-10T03:15:10.077Z,-1.40
2018-02-10T03:18:19.930Z,-1.30
2018-02-10T03:21:30.558Z,-1.30
2018-02-10T03:24:41.625Z,-1.30
2018-02-10T03:27:51.617Z,-1.30
2018-02-10T03:31:01.433Z,-1.30
2018-02-10T03:34:11.392Z,-1.30
2018-02-10T03:37:22.037Z,-1.30
2018-02-10T03:40:31.771Z,-1.30
2018-02-10T03:43:41.900Z,-1.30
2018-02-10T03:46:52.021Z,-1.30
2018-02-10T03:50:01.890Z,-1.30
2018-02-10T03:53:12.054Z,-1.20
2018-02-10T03:56:22.094Z,-1.20
2018-02-10T03:59:32.168Z,-1.20
2018-02-10T04:02:42.706Z,-1.20
2018-02-10T04:05:53.558Z,-1.20
2018-02-10T04:09:03.561Z,-1.20
2018-02-10T04:12:13.550Z,-1.20
2018-02-10T04:15:24.342Z,-1.30
2018-02-10T04:18:34.587Z,-1.30
2018-02-10T04:21:45.794Z,-1.30
2018-02-10T04:24:56.447Z,-1.30
2018-02-10T04:28:07.862Z,-1.20
2018-02-10T04:31:18.009Z,-1.30
2018-02-10T04:34:27.807Z,-1.20
2018-02-10T04:37:38.379Z,-1.20
2018-02-10T04:40:48.181Z,-1.20
2018-02-10T04:43:58.011Z,-1.20
2018-02-10T04:47:07.998Z,-1.30
2018-02-10T04:50:17.982Z,-1.30
2018-02-10T04:53:28.525Z,-1.20
2018-02-10T04:56:38.452Z,-1.20
2018-02-10T04:59:48.414Z,-1.20
2018-02-10T05:02:58.222Z,-1.20
2018-02-10T05:06:07.968Z,-1.30
2018-02-10T05:09:17.869Z,-1.20
2018-02-10T05:12:27.902Z,-1.20
2018-02-10T05:15:37.914Z,-1.20
2018-02-10T05:18:48.262Z,-1.20
2018-02-10T05:21:58.377Z,-1.20
2018-02-10T05:25:09.746Z,-1.20
2018-02-10T05:28:20.058Z,-1.20
2018-02-10T05:31:30.527Z,-1.20
2018-02-10T05:34:40.359Z,-1.20
2018-02-10T05:37:50.353Z,-1.20
2018-02-10T05:41:01.037Z,-1.20
2018-02-10T05:44:10.772Z,-1.20
2018-02-10T05:47:21.010Z,-1.30
2018-02-10T05:50:31.016Z,-1.30
2018-02-10T05:53:41.358Z,-1.30
2018-02-10T05:56:51.910Z,-1.30
2018-02-10T06:00:02.095Z,-1.30
2018-02-10T06:03:12.591Z,-1.30
2018-02-10T06:06:22.937Z,-1.30
2018-02-10T06:09:32.787Z,-1.30
2018-02-10T06:12:42.883Z,-1.30
2018-02-10T06:15:52.849Z,-1.30
2018-02-10T06:19:02.673Z,-1.30
2018-02-10T06:22:12.429Z,-1.20
2018-02-10T06:25:22.371Z,-1.30
2018-02-10T06:28:32.518Z,-1.20
2018-02-10T06:31:43.442Z,-1.30
2018-02-10T06:34:53.503Z,-1.30
2018-02-10T06:38:03.443Z,-1.30
2018-02-10T06:41:13.214Z,-1.20
2018-02-10T06:44:23.954Z,-1.30
2018-02-10T06:47:34.266Z,-1.30
2018-02-10T06:50:44.062Z,-1.20
2018-02-10T06:53:53.937Z,-1.20
2018-02-10T06:57:03.854Z,-1.20
2018-02-10T07:00:13.727Z,-1.20
2018-02-10T07:03:24.158Z,-1.20
2018-02-10T07:06:34.435Z,-1.20
2018-02-10T07:09:45.189Z,-1.20
2018-02-10T07:12:55.429Z,-1.30
2018-02-10T07:16:05.278Z,-1.20
2018-02-10T07:19:15.346Z,-1.20
2018-02-10T07:22:25.283Z,-1.20
2018-02-10T07:25:35.482Z,-1.20
2018-02-10T07:28:45.413Z,-1.20
2018-02-10T07:31:55.558Z,-1.20
2018-02-10T07:35:05.650Z,-1.20
2018-02-10T07:38:16.265Z,-1.10
2018-02-10T07:41:26.396Z,-1.10
2018-02-10T07:44:37.026Z,-1.20
2018-02-10T07:47:47.846Z,-1.10
2018-02-10T07:50:57.942Z,-1.10
2018-02-10T07:54:07.846Z,-1.10
2018-02-10T07:57:18.715Z,-1.10
2018-02-10T08:00:28.553Z,-1.10
2018-02-10T08:03:39.209Z,-1.10
2018-02-10T08:06:49.524Z,-1.10
2018-02-10T08:09:59.337Z,-1.10
2018-02-10T08:13:09.386Z,-1.10
2018-02-10T08:16:19.274Z,-1.10
2018-02-10T08:19:30.351Z,-1.00
2018-02-10T08:22:40.693Z,-1.10
2018-02-10T08:25:50.598Z,-1.00
2018-02-10T08:29:00.471Z,-1.00
2018-02-10T08:32:10.399Z,-0.90
2018-02-10T08:35:21.229Z,-0.90
2018-02-10T08:38:31.487Z,-1.00
2018-02-10T08:41:42.799Z,-0.90
2018-02-10T08:44:53.142Z,-0.90
2018-02-10T08:48:02.973Z,-0.90
2018-02-10T08:51:12.846Z,-0.90
2018-02-10T08:54:22.963Z,-0.90
2018-02-10T08:57:32.898Z,-0.90
2018-02-10T09:00:43.113Z,-0.80
2018-02-10T09:03:53.001Z,-0.80
2018-02-10T09:07:03.124Z,-0.80
2018-02-10T09:10:14.514Z,-0.70
2018-02-10T09:13:25.001Z,-0.80
2018-02-10T09:16:35.601Z,-0.70
2018-02-10T09:19:45.597Z,-0.70
2018-02-10T09:22:55.739Z,-0.60
2018-02-10T09:26:05.663Z,-0.60
2018-02-10T09:29:16.555Z,-0.60
2018-02-10T09:32:26.637Z,-0.50
2018-02-10T09:35:37.388Z,-0.50
2018-02-10T09:38:47.510Z,-0.40
2018-02-10T09:41:58.093Z,-0.40
2018-02-10T09:45:08.563Z,-0.40
2018-02-10T09:48:21.280Z,-0.40
2018-02-10T09:51:31.195Z,-0.40
2018-02-10T09:54:42.300Z,-0.30
2018-02-10T09:57:52.607Z,-0.40
2018-02-10T10:01:02.598Z,-0.30
2018-02-10T10:04:13.480Z,-0.30
2018-02-10T10:07:23.441Z,-0.30
2018-02-10T10:10:33.566Z,-0.20
2018-02-10T10:13:44.816Z,-0.30
2018-02-10T10:16:55.102Z,-0.30
2018-02-10T10:20:05.083Z,-0.30
2018-02-10T10:23:15.730Z,-0.20
2018-02-10T10:26:25.842Z,-0.20
2018-02-10T10:29:37.917Z,-0.20
2018-02-10T10:32:48.091Z,-0.20
2018-02-10T10:35:58.082Z,-0.20
2018-02-10T10:39:09.033Z,-0.10
2018-02-10T10:42:19.457Z,-0.10
2018-02-10T10:45:29.866Z,-0.10
2018-02-10T10:48:40.180Z,-0.10
2018-02-10T10:51:50.751Z,-0.10
2018-02-10T10:55:01.902Z,0.00
2018-02-10T11:16:09.901Z,0.20
2018-02-10T11:19:19.767Z,0.20
2018-02-10T11:22:30.078Z,0.30
2018-02-10T11:25:40.009Z,0.30
2018-02-10T11:28:49.906Z,0.30
2018-02-10T11:32:00.021Z,0.40
2018-02-10T11:35:10.087Z,0.40
2018-02-10T11:38:20.024Z,0.50
2018-02-10T11:41:30.338Z,0.50
2018-02-10T11:44:40.883Z,0.50
2018-02-10T11:47:51.403Z,0.60
2018-02-10T11:51:01.574Z,0.60
2018-02-10T11:54:12.758Z,0.70
2018-02-10T11:57:22.594Z,0.70
2018-02-10T12:00:33.128Z,0.70
2018-02-10T12:03:43.288Z,0.70
2018-02-10T12:06:54.053Z,0.70
2018-02-10T12:10:04.410Z,0.80
2018-02-10T12:13:15.405Z,0.80
2018-02-10T12:16:25.614Z,0.80
2018-02-10T12:19:36.900Z,0.80
2018-02-10T12:22:47.549Z,0.80
2018-02-10T12:25:58.237Z,0.80
2018-02-10T12:29:08.267Z,0.80
2018-02-10T12:32:18.244Z,0.80
2018-02-10T12:35:29.703Z,0.80
2018-02-10T12:38:41.363Z,0.90
2018-02-10T12:41:52.013Z,0.90
2018-02-10T12:45:01.945Z,0.90
2018-02-10T12:48:19.009Z,1.00
2018-02-10T12:51:29.041Z,1.00
2018-02-10T12:54:39.903Z,1.00
2018-02-10T12:57:50.745Z,1.00
2018-02-10T13:01:01.446Z,1.10
2018-02-10T13:04:11.427Z,1.10
2018-02-10T13:07:21.373Z,1.20
2018-02-10T13:10:31.386Z,1.30
2018-02-10T13:13:41.482Z,1.30
2018-02-10T13:16:52.078Z,1.40
2018-02-10T13:20:01.986Z,1.30
2018-02-10T13:23:12.751Z,1.40
2018-02-10T13:26:23.175Z,1.40
2018-02-10T13:29:33.461Z,1.40
2018-02-10T13:32:43.861Z,1.50
2018-02-10T13:35:55.107Z,1.60
2018-02-10T13:39:07.658Z,1.60
2018-02-10T13:42:18.299Z,1.60
2018-02-10T13:45:28.469Z,1.70
2018-02-10T13:48:40.819Z,1.70
2018-02-10T13:51:52.305Z,1.70
2018-02-10T13:55:02.236Z,1.70
2018-02-10T13:58:12.838Z,1.70
2018-02-10T14:01:22.612Z,1.70
2018-02-10T14:04:33.217Z,1.70
2018-02-10T14:07:43.213Z,1.70
2018-02-10T14:21:41.086Z,1.70
2018-02-10T14:24:52.330Z,1.60
2018-02-10T14:28:02.070Z,1.60
2018-02-10T14:31:12.256Z,1.60
2018-02-10T14:34:22.030Z,1.50
2018-02-10T14:37:32.522Z,1.60
2018-02-10T14:40:42.668Z,1.60
2018-02-10T14:43:52.641Z,1.50
2018-02-10T14:47:02.875Z,1.50
2018-02-10T14:50:13.258Z,1.50
2018-02-10T14:53:23.812Z,1.50
2018-02-10T14:56:33.894Z,1.40
2018-02-10T14:59:43.794Z,1.50
2018-02-10T15:02:55.032Z,1.50
2018-02-10T15:06:05.505Z,1.50
2018-02-10T15:09:15.737Z,1.50
2018-02-10T15:12:26.157Z,1.50
2018-02-10T15:15:36.442Z,1.50
2018-02-10T15:18:46.626Z,1.40
2018-02-10T15:21:56.823Z,1.40
2018-02-10T15:25:06.772Z,1.40
2018-02-10T15:28:16.750Z,1.40
2018-02-10T15:31:26.174Z,1.40
2018-02-10T15:34:44.061Z,1.40
2018-02-10T15:37:55.165Z,1.40
2018-02-10T15:41:05.807Z,1.40
2018-02-10T15:44:16.236Z,1.30
2018-02-10T15:47:26.359Z,1.30
2018-02-10T15:50:36.388Z,1.30
2018-02-10T15:53:46.847Z,1.20
2018-02-10T15:56:56.739Z,1.20
2018-02-10T16:00:07.098Z,1.20
2018-02-10T16:03:17.007Z,1.20
2018-02-10T16:06:27.050Z,1.20
2018-02-10T16:09:37.564Z,1.20
2018-02-10T16:12:47.318Z,1.20
2018-02-10T16:15:57.548Z,1.10
2018-02-10T16:19:07.946Z,1.20
2018-02-10T16:22:18.134Z,1.10
2018-02-10T16:25:28.387Z,1.20
2018-02-10T16:28:38.642Z,1.20
2018-02-10T16:31:49.125Z,1.10
2018-02-10T16:34:59.538Z,1.10
2018-02-10T16:38:09.928Z,1.10
2018-02-10T16:41:19.656Z,1.10
2018-02-10T16:44:30.586Z,1.10
2018-02-10T16:47:40.832Z,1.10
2018-02-10T16:50:50.888Z,1.10
2018-02-10T16:54:01.579Z,1.00
2018-02-10T16:57:13.624Z,1.00
2018-02-10T17:00:24.774Z,1.00
2018-02-10T17:03:35.625Z,1.00
2018-02-10T17:06:45.638Z,1.00
2018-02-10T17:09:56.232Z,1.00
2018-02-10T17:13:07.618Z,1.00
2018-02-10T17:16:17.722Z,1.00
2018-02-10T17:19:28.577Z,1.00
2018-02-10T17:22:39.356Z,1.00
2018-02-10T17:25:52.272Z,1.00
2018-02-10T17:29:02.196Z,1.00
2018-02-10T17:32:12.956Z,1.00
2018-02-10T17:35:23.023Z,0.90
2018-02-10T17:38:33.470Z,0.90
2018-02-10T17:41:43.793Z,1.00
2018-02-10T17:44:54.067Z,1.00
2018-02-10T17:48:04.021Z,1.00
2018-02-10T17:51:14.597Z,0.90
2018-02-10T17:54:25.834Z,0.90
2018-02-10T17:57:36.721Z,0.90
2018-02-10T18:00:46.579Z,0.90
2018-02-10T18:07:32.424Z,0.90
2018-02-10T18:10:43.093Z,0.90
2018-02-10T18:13:53.458Z,0.90
2018-02-10T18:17:03.571Z,0.90
2018-02-10T18:20:14.085Z,0.90
2018-02-10T18:23:25.220Z,0.90
2018-02-10T18:26:35.865Z,0.90
2018-02-10T18:29:45.962Z,0.90
2018-02-10T18:32:57.273Z,0.90
2018-02-10T18:36:07.967Z,0.90
2018-02-10T18:39:17.936Z,0.90
2018-02-10T18:42:28.538Z,0.90
2018-02-10T18:45:38.761Z,0.90
2018-02-10T18:48:49.454Z,0.90
2018-02-10T18:52:00.054Z,0.90
2018-02-10T18:55:10.856Z,0.90
2018-02-10T18:58:21.131Z,0.90
2018-02-10T19:01:31.262Z,0.90
2018-02-10T19:04:41.055Z,0.90
2018-02-10T19:07:51.251Z,0.90
2018-02-10T19:11:01.279Z,0.90
2018-02-10T19:14:11.215Z,0.90
2018-02-10T19:17:21.802Z,0.90
2018-02-10T19:20:33.259Z,0.90
2018-02-10T19:23:44.553Z,0.90
2018-02-10T19:26:54.456Z,0.80
2018-02-10T19:30:05.036Z,0.90
2018-02-10T19:33:15.236Z,0.90
2018-02-10T19:36:25.514Z,0.90
2018-02-10T19:39:35.948Z,0.90
2018-02-10T19:42:46.671Z,0.90
2018-02-10T19:45:57.849Z,0.90
2018-02-10T19:49:08.515Z,0.90
2018-02-10T19:52:19.557Z,0.90
2018-02-10T19:55:29.618Z,0.80
2018-02-10T19:58:40.028Z,0.80
2018-02-10T20:01:50.160Z,0.80
2018-02-10T20:05:00.272Z,0.80
2018-02-10T20:08:10.028Z,0.80
2018-02-10T20:11:20.782Z,0.80
2018-02-10T20:14:31.654Z,0.80
2018-02-10T20:17:41.892Z,0.80
2018-02-10T20:38:49.919Z,0.80
2018-02-10T20:42:00.429Z,0.80
2018-02-10T20:45:10.282Z,0.80
2018-02-10T20:48:21.425Z,0.80
2018-02-10T20:51:31.694Z,0.80
2018-02-10T20:54:42.238Z,0.80
2018-02-10T20:57:52.114Z,0.80
2018-02-10T21:01:02.659Z,0.80
2018-02-10T21:04:12.865Z,0.80
2018-02-10T21:07:23.286Z,0.80
2018-02-10T21:10:34.180Z,0.80
2018-02-10T21:13:45.031Z,0.80
2018-02-10T21:16:55.430Z,0.80
2018-02-10T21:20:05.085Z,0.80
2018-02-10T21:23:15.078Z,0.90
2018-02-10T21:26:25.550Z,0.80
2018-02-10T21:29:36.305Z,0.80
2018-02-10T21:32:46.693Z,0.80
2018-02-10T21:35:56.754Z,0.80
2018-02-10T21:39:07.180Z,0.80
2018-02-10T21:42:17.202Z,0.80
2018-02-10T21:45:27.240Z,0.80
2018-02-10T21:48:37.963Z,0.80
2018-02-10T21:51:47.861Z,0.80
2018-02-10T21:54:58.043Z,0.80
2018-02-10T21:58:08.704Z,0.80
2018-02-10T22:01:18.607Z,0.80
2018-02-10T22:04:29.012Z,0.80
2018-02-10T22:07:39.509Z,0.80
2018-02-10T22:10:50.631Z,0.80
2018-02-10T22:14:01.375Z,0.80
2018-02-10T22:17:11.995Z,0.80
2018-02-10T22:20:22.550Z,0.90
2018-02-10T22:23:33.177Z,0.80
2018-02-10T22:26:43.981Z,0.80
2018-02-10T22:29:54.464Z,0.80
2018-02-10T22:33:04.699Z,0.80
2018-02-10T22:36:14.805Z,0.80
2018-02-10T22:39:25.027Z,0.80
2018-02-10T22:42:35.093Z,0.80
2018-02-10T22:45:45.414Z,0.80
2018-02-10T22:48:55.236Z,0.80
2018-02-10T22:52:05.353Z,0.80
2018-02-10T22:55:15.329Z,0.80
2018-02-10T22:58:25.670Z,0.80
2018-02-10T23:01:35.984Z,0.80
2018-02-10T23:04:45.983Z,0.80
2018-02-10T23:07:56.201Z,0.80
2018-02-10T23:11:06.009Z,0.70
2018-02-10T23:14:16.696Z,0.70
2018-02-10T23:17:27.372Z,0.70
2018-02-10T23:20:38.762Z,0.70
2018-02-10T23:23:49.266Z,0.70
2018-02-10T23:26:59.838Z,0.70
2018-02-10T23:30:09.971Z,0.70
2018-02-10T23:33:20.990Z,0.70
2018-02-10T23:36:30.884Z,0.70
2018-02-10T23:39:40.936Z,0.70
2018-02-10T23:42:50.966Z,0.60
2018-02-10T23:46:00.822Z,0.60
2018-02-10T23:49:11.232Z,0.60
2018-02-10T23:52:21.279Z,0.60
2018-02-10T23:55:31.421Z,0.60
2018-02-10T23:58:41.913Z,0.70
